Terminal Aerodrome Forecast
Issued by NWS

Home | Current Version | Previous Version | Text Only | Print | Product List | Glossary On
Versions: 1 2 3 4 5 6 7 8 9 10 11 12 13 14 15 16 17 18 19 20
000
FTUS42 TJSJ 202300 RRA
TAFJSJ
TAF
TJSJ 202343Z 2100/2124 09007KT P6SM SCT025
     FM211400 07014G21KT P6SM SCT030
     FM212200 10006KT P6SM VCSH SCT025 SCT060=

USA.gov is the U.S. government's official web portal to all federal, state and local government web resources and services.